createdAt,value
2022-09-17T00:00:30.365Z,1.04
2022-09-17T00:01:29.974Z,1.04
2022-09-17T00:02:30.094Z,1.04
2022-09-17T00:03:30.208Z,1.04
2022-09-17T00:04:30.341Z,1.04
2022-09-17T00:05:30.447Z,1.04
2022-09-17T00:06:30.605Z,1.04
2022-09-17T00:07:30.710Z,1.04
2022-09-17T00:08:30.853Z,1.04
2022-09-17T00:09:31.022Z,1.04
2022-09-17T00:10:31.110Z,1.04
2022-09-17T00:11:31.264Z,1.04
2022-09-17T00:12:31.419Z,1.04
2022-09-17T00:13:31.501Z,1.04
2022-09-17T00:14:31.655Z,1.04
2022-09-17T00:15:32.316Z,1.04
2022-09-17T00:16:32.020Z,1.04
2022-09-17T00:17:32.082Z,1.04
2022-09-17T00:18:32.242Z,1.04
2022-09-17T00:19:32.369Z,1.04
2022-09-17T00:20:32.499Z,1.04
2022-09-17T00:21:32.627Z,1.04
2022-09-17T00:22:32.775Z,1.04
2022-09-17T00:23:32.945Z,1.04
2022-09-17T00:24:33.027Z,1.04
2022-09-17T00:25:33.144Z,1.04
2022-09-17T00:26:33.289Z,1.04
2022-09-17T00:27:33.444Z,1.04
2022-09-17T00:28:33.587Z,1.04
2022-09-17T00:29:33.690Z,1.04
2022-09-17T00:30:34.422Z,1.04
2022-09-17T00:31:34.027Z,1.04
2022-09-17T00:32:34.149Z,1.04
2022-09-17T00:33:34.302Z,1.04
2022-09-17T00:34:34.459Z,1.04
2022-09-17T00:35:34.607Z,1.04
2022-09-17T00:36:34.749Z,1.04
2022-09-17T00:37:34.904Z,1.04
2022-09-17T00:38:35.065Z,1.04
2022-09-17T00:39:35.208Z,1.04
2022-09-17T00:40:35.384Z,1.04
2022-09-17T00:41:35.463Z,1.04
2022-09-17T00:42:35.616Z,1.04
2022-09-17T00:43:35.770Z,1.04
2022-09-17T00:44:35.929Z,1.04
2022-09-17T00:45:36.529Z,1.04
2022-09-17T00:46:36.315Z,1.04
2022-09-17T00:47:36.380Z,1.04
2022-09-17T00:48:36.532Z,1.04
2022-09-17T00:49:36.678Z,1.04
2022-09-17T00:50:36.839Z,1.04
2022-09-17T00:51:36.938Z,1.04
2022-09-17T00:52:37.082Z,1.04
2022-09-17T00:53:37.238Z,1.04
2022-09-17T00:54:37.388Z,1.04
2022-09-17T00:55:37.542Z,1.04
2022-09-17T00:56:37.691Z,1.04
2022-09-17T00:57:37.839Z,1.04
2022-09-17T00:58:41.212Z,1.04
2022-09-17T00:59:38.098Z,1.04
2022-09-17T01:00:38.863Z,1.04
2022-09-17T01:01:38.419Z,1.04
2022-09-17T01:02:38.515Z,1.04
2022-09-17T01:03:38.657Z,1.04
2022-09-17T01:04:38.813Z,1.04
2022-09-17T01:05:38.918Z,1.04
2022-09-17T01:06:39.060Z,1.04
2022-09-17T01:07:39.212Z,1.04
2022-09-17T01:08:39.359Z,1.04
2022-09-17T01:09:39.462Z,1.04
2022-09-17T01:10:39.620Z,1.04
2022-09-17T01:11:39.755Z,1.04
2022-09-17T01:12:39.915Z,1.04
2022-09-17T01:13:40.066Z,1.04
2022-09-17T01:14:40.221Z,1.04
2022-09-17T01:15:41.058Z,1.04
2022-09-17T01:16:40.525Z,1.04
2022-09-17T01:17:40.674Z,1.04
2022-09-17T01:18:40.787Z,1.04
2022-09-17T01:19:40.897Z,1.04
2022-09-17T01:20:41.038Z,1.04
2022-09-17T01:21:41.191Z,1.04
2022-09-17T01:22:41.338Z,1.04
2022-09-17T01:23:41.438Z,1.04
2022-09-17T01:24:41.589Z,1.04
2022-09-17T01:25:41.743Z,1.04
2022-09-17T01:26:41.899Z,1.04
2022-09-17T01:27:45.611Z,1.04
2022-09-17T01:28:42.201Z,1.04
2022-09-17T01:29:42.343Z,1.04
2022-09-17T01:30:43.072Z,1.04
2022-09-17T01:31:42.695Z,1.04
2022-09-17T01:32:42.752Z,1.04
2022-09-17T01:33:42.852Z,1.04
2022-09-17T01:34:43.086Z,1.04
2022-09-17T01:35:44.080Z,1.04
2022-09-17T01:36:43.297Z,1.04
2022-09-17T01:37:43.430Z,1.04
2022-09-17T01:38:43.587Z,1.04
2022-09-17T01:39:43.726Z,1.04
2022-09-17T01:40:43.823Z,1.04
2022-09-17T01:41:43.968Z,1.04
2022-09-17T01:42:44.083Z,1.04
2022-09-17T01:43:44.229Z,1.04
2022-09-17T01:44:44.324Z,1.04
2022-09-17T01:45:44.972Z,1.04
2022-09-17T01:46:44.668Z,1.04
2022-09-17T01:47:44.726Z,1.04
2022-09-17T01:48:44.874Z,1.04
2022-09-17T01:49:44.976Z,1.04
2022-09-17T01:50:45.139Z,1.04
2022-09-17T01:51:45.243Z,1.04
2022-09-17T01:52:45.396Z,1.04
2022-09-17T01:53:45.550Z,1.04
2022-09-17T01:54:45.736Z,1.04
2022-09-17T01:55:46.630Z,1.04
2022-09-17T01:56:46.023Z,1.04
2022-09-17T01:57:46.199Z,1.04
2022-09-17T01:58:46.961Z,1.04
2022-09-17T01:59:47.023Z,1.04
2022-09-17T02:00:46.595Z,1.04
2022-09-17T02:01:46.706Z,1.04
2022-09-17T02:02:46.816Z,1.04
2022-09-17T02:03:47.016Z,1.04
2022-09-17T02:04:47.118Z,1.04
2022-09-17T02:05:47.296Z,1.04
2022-09-17T02:06:48.060Z,1.04
2022-09-17T02:07:47.565Z,1.04
2022-09-17T02:08:47.714Z,1.04
2022-09-17T02:09:47.870Z,1.04
2022-09-17T02:10:48.028Z,1.04
2022-09-17T02:11:48.183Z,1.04
2022-09-17T02:12:48.333Z,1.04
2022-09-17T02:13:48.478Z,1.04
2022-09-17T02:14:49.079Z,1.04
2022-09-17T02:15:48.755Z,1.04
2022-09-17T02:16:48.777Z,1.04
2022-09-17T02:17:48.936Z,1.04
2022-09-17T02:18:49.090Z,1.04
2022-09-17T02:19:49.250Z,1.04
2022-09-17T02:20:49.392Z,1.04
2022-09-17T02:21:49.544Z,1.04
2022-09-17T02:22:49.700Z,1.04
2022-09-17T02:23:49.800Z,1.04
2022-09-17T02:24:49.944Z,1.04
2022-09-17T02:25:50.101Z,1.04
2022-09-17T02:26:50.249Z,1.04
2022-09-17T02:27:50.414Z,1.04
2022-09-17T02:28:50.567Z,1.04
2022-09-17T02:29:51.265Z,1.04
2022-09-17T02:30:50.854Z,1.04
2022-09-17T02:31:51.067Z,1.04
2022-09-17T02:32:51.074Z,1.04
2022-09-17T02:33:51.292Z,1.04
2022-09-17T02:34:51.372Z,1.04
2022-09-17T02:35:51.457Z,1.04
2022-09-17T02:36:51.566Z,1.04
2022-09-17T02:37:51.715Z,1.04
2022-09-17T02:38:51.822Z,1.04
2022-09-17T02:39:52.075Z,1.04
2022-09-17T02:40:52.131Z,1.04
2022-09-17T02:41:52.277Z,1.04
2022-09-17T02:42:52.381Z,1.04
2022-09-17T02:43:52.542Z,1.04
2022-09-17T02:44:53.319Z,1.04
2022-09-17T02:45:52.838Z,1.04
2022-09-17T02:46:53.091Z,1.04
2022-09-17T02:47:53.145Z,1.04
2022-09-17T02:48:53.301Z,1.04
2022-09-17T02:49:53.444Z,1.04
2022-09-17T02:50:53.596Z,1.04
2022-09-17T02:51:53.755Z,1.04
2022-09-17T02:52:53.895Z,1.04
2022-09-17T02:53:54.002Z,1.04
2022-09-17T02:54:54.149Z,1.04
2022-09-17T02:55:54.308Z,1.04
2022-09-17T02:56:54.456Z,1.04
2022-09-17T02:57:54.603Z,1.04
2022-09-17T02:58:54.712Z,1.04
2022-09-17T02:59:55.368Z,1.04
2022-09-17T03:00:55.066Z,1.04
2022-09-17T03:01:55.105Z,1.04
2022-09-17T03:02:55.171Z,1.04
2022-09-17T03:03:55.345Z,1.04
2022-09-17T03:04:55.463Z,1.04
2022-09-17T03:05:55.627Z,1.04
2022-09-17T03:06:55.780Z,1.04
2022-09-17T03:07:55.926Z,1.04
2022-09-17T03:08:56.144Z,1.04
2022-09-17T03:09:56.222Z,1.04
2022-09-17T03:10:56.378Z,1.04
2022-09-17T03:11:56.543Z,1.04
2022-09-17T03:12:56.714Z,1.04
2022-09-17T03:13:56.825Z,1.04
2022-09-17T03:14:57.463Z,1.04
2022-09-17T03:15:57.188Z,1.04
2022-09-17T03:16:57.238Z,1.04
2022-09-17T03:17:57.390Z,1.04
2022-09-17T03:18:57.536Z,1.04
2022-09-17T03:19:57.647Z,1.04
2022-09-17T03:20:57.816Z,1.04
2022-09-17T03:21:58.010Z,1.04
2022-09-17T03:22:58.852Z,1.04
2022-09-17T03:23:58.205Z,1.04
2022-09-17T03:24:58.367Z,1.04
2022-09-17T03:25:58.499Z,1.04
2022-09-17T03:26:58.609Z,1.04
2022-09-17T03:27:58.756Z,1.04
2022-09-17T03:28:59.291Z,1.04
2022-09-17T03:29:59.492Z,1.04
2022-09-17T03:30:59.227Z,1.04
2022-09-17T03:31:59.266Z,1.04
2022-09-17T03:32:59.420Z,1.04
2022-09-17T03:33:59.565Z,1.04
2022-09-17T03:34:59.723Z,1.04
2022-09-17T03:35:59.874Z,1.04
2022-09-17T03:37:00.058Z,1.04
2022-09-17T03:38:00.205Z,1.04
2022-09-17T03:39:00.349Z,1.04
2022-09-17T03:40:00.673Z,1.04
2022-09-17T03:41:00.650Z,1.04
2022-09-17T03:42:00.789Z,1.04
2022-09-17T03:43:00.890Z,1.04
2022-09-17T03:44:01.038Z,1.04
2022-09-17T03:45:01.671Z,1.04
2022-09-17T03:46:01.399Z,1.04
2022-09-17T03:47:01.491Z,1.04
2022-09-17T03:48:01.652Z,1.04
2022-09-17T03:49:01.748Z,1.04
2022-09-17T03:50:01.902Z,1.04
2022-09-17T03:51:02.051Z,1.04
2022-09-17T03:52:02.154Z,1.04
2022-09-17T03:53:02.258Z,1.04
2022-09-17T03:54:02.415Z,1.04
2022-09-17T03:55:02.605Z,1.04
2022-09-17T03:56:02.708Z,1.04
2022-09-17T03:57:02.882Z,1.04
2022-09-17T03:58:03.022Z,1.04
2022-09-17T03:59:03.145Z,1.04
2022-09-17T04:00:03.792Z,1.04
2022-09-17T04:01:03.428Z,1.04
2022-09-17T04:02:03.648Z,1.04
2022-09-17T04:03:03.674Z,1.04
2022-09-17T04:04:03.826Z,1.04
2022-09-17T04:05:03.970Z,1.04
2022-09-17T04:06:04.139Z,1.04
2022-09-17T04:07:04.282Z,1.04
2022-09-17T04:08:04.380Z,1.04
2022-09-17T04:09:04.532Z,1.04
2022-09-17T04:10:04.636Z,1.04
2022-09-17T04:11:04.789Z,1.04
2022-09-17T04:12:04.945Z,1.04
2022-09-17T04:13:05.071Z,1.04
2022-09-17T04:14:05.197Z,2
2022-09-17T04:15:05.841Z,2
2022-09-17T04:16:05.540Z,2
2022-09-17T04:17:05.604Z,2
2022-09-17T04:18:05.753Z,3.04
2022-09-17T04:19:05.906Z,3.04
2022-09-17T04:20:06.058Z,4
2022-09-17T04:21:06.206Z,5.04
2022-09-17T04:22:06.376Z,5.04
2022-09-17T04:23:06.467Z,6
2022-09-17T04:24:06.617Z,7.04
2022-09-17T04:25:06.782Z,7.04
2022-09-17T04:26:06.919Z,8
2022-09-17T04:27:07.072Z,9.04
2022-09-17T04:28:07.229Z,11.04
2022-09-17T04:29:07.403Z,16
2022-09-17T04:30:08.139Z,17.04
2022-09-17T04:31:07.747Z,20
2022-09-17T04:32:07.846Z,30
2022-09-17T04:33:07.960Z,35.04
2022-09-17T04:34:08.074Z,41.04
2022-09-17T04:35:08.197Z,43.04
2022-09-17T04:36:08.334Z,50
2022-09-17T04:37:08.497Z,51.04
2022-09-17T04:38:08.633Z,55.04
2022-09-17T04:39:08.751Z,66
2022-09-17T04:40:08.961Z,64
2022-09-17T04:41:09.050Z,71.04
2022-09-17T04:42:09.192Z,96
2022-09-17T04:43:09.349Z,112
2022-09-17T04:44:09.454Z,118
2022-09-17T04:45:10.255Z,152
2022-09-17T04:46:09.869Z,169.12
2022-09-17T04:47:09.910Z,161.04
2022-09-17T04:48:10.066Z,147.04
2022-09-17T04:49:10.233Z,159.04
2022-09-17T04:50:10.360Z,178.08
2022-09-17T04:51:10.501Z,210.08
2022-09-17T04:52:10.608Z,263.04
2022-09-17T04:53:10.798Z,310.08
2022-09-17T04:54:10.917Z,344
2022-09-17T04:55:11.070Z,381.12
2022-09-17T04:56:11.220Z,354.24
2022-09-17T04:57:11.366Z,327.04
2022-09-17T04:58:11.481Z,287.04
2022-09-17T04:59:11.621Z,334.08
2022-09-17T05:00:12.451Z,356.16
2022-09-17T05:01:11.978Z,351.04
2022-09-17T05:02:12.106Z,362.24
2022-09-17T05:03:12.133Z,440
2022-09-17T05:04:12.296Z,442.24
2022-09-17T05:05:12.465Z,662.4
2022-09-17T05:06:12.594Z,765.44
2022-09-17T05:07:13.927Z,902.4
2022-09-17T05:08:12.835Z,965.12
2022-09-17T05:09:13.028Z,982.4
2022-09-17T05:10:13.103Z,905.6
2022-09-17T05:11:13.245Z,693.12
2022-09-17T05:12:13.401Z,578.24
2022-09-17T05:13:13.500Z,480
2022-09-17T05:14:13.645Z,515.2
2022-09-17T05:15:13.818Z,625.28
2022-09-17T05:16:14.043Z,679.04
2022-09-17T05:17:14.099Z,821.12
2022-09-17T05:18:14.210Z,856.32
2022-09-17T05:19:14.361Z,912
2022-09-17T05:20:14.518Z,955.52
2022-09-17T05:21:14.690Z,1064.32
2022-09-17T05:22:17.332Z,1205.12
2022-09-17T05:23:14.927Z,1493.76
2022-09-17T05:24:15.080Z,1450.24
2022-09-17T05:25:15.226Z,1133.44
2022-09-17T05:26:15.406Z,994.56
2022-09-17T05:27:15.527Z,879.36
2022-09-17T05:28:15.675Z,944
2022-09-17T05:29:15.776Z,1192.32
2022-09-17T05:30:16.430Z,1564.16
2022-09-17T05:31:16.089Z,2173.44
2022-09-17T05:32:16.190Z,2964.48
2022-09-17T05:33:16.328Z,2841.6
2022-09-17T05:34:16.437Z,2913.28
2022-09-17T05:35:16.588Z,2501.12
2022-09-17T05:36:16.737Z,1806.08
2022-09-17T05:37:16.891Z,1078.4
2022-09-17T05:38:17.051Z,923.52
2022-09-17T05:39:17.200Z,783.36
2022-09-17T05:40:17.405Z,741.12
2022-09-17T05:41:17.508Z,813.44
2022-09-17T05:42:17.652Z,1032.32
2022-09-17T05:43:17.812Z,1548.8
2022-09-17T05:44:18.336Z,1834.24
2022-09-17T05:45:18.583Z,2056.96
2022-09-17T05:46:18.303Z,2416.64
2022-09-17T05:47:18.402Z,2489.6
2022-09-17T05:48:18.503Z,2309.12
2022-09-17T05:49:18.649Z,1962.24
2022-09-17T05:50:18.808Z,1798.4
2022-09-17T05:51:18.978Z,1606.4
2022-09-17T05:52:19.062Z,1721.6
2022-09-17T05:53:19.174Z,1687.04
2022-09-17T05:54:19.276Z,1588.48
2022-09-17T05:55:19.380Z,1331.2
2022-09-17T05:56:19.566Z,1227.52
2022-09-17T05:57:19.684Z,1171.2
2022-09-17T05:58:19.853Z,1226.24
2022-09-17T05:59:19.976Z,1392.64
2022-09-17T06:00:20.721Z,1382.4
2022-09-17T06:01:20.269Z,1358.08
2022-09-17T06:02:20.485Z,1491.2
2022-09-17T06:03:20.645Z,1733.12
2022-09-17T06:04:20.739Z,1716.48
2022-09-17T06:05:20.851Z,1792
2022-09-17T06:06:21.006Z,1946.88
2022-09-17T06:07:21.153Z,1975.04
2022-09-17T06:08:21.299Z,1926.4
2022-09-17T06:09:21.447Z,1868.8
2022-09-17T06:10:21.598Z,2010.88
2022-09-17T06:11:21.753Z,2277.12
2022-09-17T06:12:21.904Z,2787.84
2022-09-17T06:13:22.017Z,3223.04
2022-09-17T06:14:22.167Z,3443.2
2022-09-17T06:15:22.785Z,3658.24
2022-09-17T06:16:22.500Z,3993.6
2022-09-17T06:17:22.604Z,3960.32
2022-09-17T06:18:22.772Z,4154.88
2022-09-17T06:19:22.912Z,4956.16
2022-09-17T06:20:23.072Z,4833.28
2022-09-17T06:21:23.230Z,4231.68
2022-09-17T06:22:23.327Z,3481.6
2022-09-17T06:23:23.472Z,3891.2
2022-09-17T06:24:23.631Z,3571.2
2022-09-17T06:25:23.773Z,3054.08
2022-09-17T06:26:23.927Z,2688
2022-09-17T06:27:24.081Z,1820.16
2022-09-17T06:28:24.255Z,1632
2022-09-17T06:29:24.394Z,1395.2
2022-09-17T06:30:25.155Z,1039.36
2022-09-17T06:31:24.792Z,872.32
2022-09-17T06:32:24.861Z,854.4
2022-09-17T06:33:25.002Z,1027.2
2022-09-17T06:34:25.145Z,1022.08
2022-09-17T06:35:25.288Z,1112.32
2022-09-17T06:36:25.451Z,1285.12
2022-09-17T06:37:25.599Z,1621.76
2022-09-17T06:38:25.748Z,2615.04
2022-09-17T06:39:25.856Z,2695.68
2022-09-17T06:40:26.066Z,3548.16
2022-09-17T06:41:26.105Z,3025.92
2022-09-17T06:42:26.255Z,3036.16
2022-09-17T06:43:26.412Z,3745.28
2022-09-17T06:44:26.565Z,4526.08
2022-09-17T06:45:27.435Z,4861.44
2022-09-17T06:46:26.884Z,4480
2022-09-17T06:47:26.947Z,3686.4
2022-09-17T06:48:27.075Z,3010.56
2022-09-17T06:49:27.217Z,2485.76
2022-09-17T06:50:27.324Z,2452.48
2022-09-17T06:51:27.481Z,1889.28
2022-09-17T06:52:27.628Z,2123.52
2022-09-17T06:53:27.731Z,2004.48
2022-09-17T06:54:27.822Z,1888
2022-09-17T06:55:27.979Z,2160.64
2022-09-17T06:56:28.138Z,2561.28
2022-09-17T06:57:28.284Z,2772.48
2022-09-17T06:58:28.431Z,2900.48
2022-09-17T06:59:28.588Z,3686.4
2022-09-17T07:00:29.373Z,2851.84
2022-09-17T07:01:28.934Z,3430.4
2022-09-17T07:02:29.095Z,4290.56
2022-09-17T07:03:29.085Z,4546.56
2022-09-17T07:04:29.247Z,3543.04
2022-09-17T07:05:29.457Z,2928.64
2022-09-17T07:06:30.222Z,3033.6
2022-09-17T07:07:29.704Z,3287.04
2022-09-17T07:08:29.912Z,3136
2022-09-17T07:09:29.954Z,3159.04
2022-09-17T07:10:30.118Z,2775.04
2022-09-17T07:11:30.259Z,2585.6
2022-09-17T07:12:30.418Z,2900.48
2022-09-17T07:13:30.563Z,4101.12
2022-09-17T07:14:30.710Z,6420.48
2022-09-17T07:15:31.351Z,6615.04
2022-09-17T07:16:31.015Z,8064
2022-09-17T07:17:31.106Z,6871.04
2022-09-17T07:18:31.226Z,4587.52
2022-09-17T07:19:31.383Z,5493.76
2022-09-17T07:20:31.531Z,6845.44
2022-09-17T07:21:31.679Z,7925.76
2022-09-17T07:22:31.836Z,10526.72
2022-09-17T07:23:31.979Z,10475.52
2022-09-17T07:24:33.076Z,10152.96
2022-09-17T07:25:32.279Z,9589.76
2022-09-17T07:26:32.430Z,8263.68
2022-09-17T07:27:32.580Z,6983.68
2022-09-17T07:28:32.743Z,7004.16
2022-09-17T07:29:32.892Z,7316.48
2022-09-17T07:30:33.564Z,7034.88
2022-09-17T07:31:33.220Z,7152.64
2022-09-17T07:32:33.338Z,7413.76
2022-09-17T07:33:33.502Z,9922.56
2022-09-17T07:34:33.652Z,10255.359
2022-09-17T07:35:33.751Z,11816.96
2022-09-17T07:36:33.907Z,13711.359
2022-09-17T07:37:34.058Z,11171.84
2022-09-17T07:38:34.183Z,11008
2022-09-17T07:39:34.329Z,10670.08
2022-09-17T07:40:34.547Z,8268.8
2022-09-17T07:41:34.617Z,6231.04
2022-09-17T07:42:34.756Z,5672.96
2022-09-17T07:43:34.857Z,4684.8
2022-09-17T07:44:35.019Z,4152.32
2022-09-17T07:45:35.109Z,4948.48
2022-09-17T07:46:35.282Z,5396.48
2022-09-17T07:47:35.406Z,7818.24
2022-09-17T07:48:36.148Z,7316.48
2022-09-17T07:49:35.719Z,6169.6
2022-09-17T07:50:35.881Z,5242.88
2022-09-17T07:51:36.035Z,7060.48
2022-09-17T07:52:36.130Z,8862.72
2022-09-17T07:53:36.284Z,10019.84
2022-09-17T07:54:36.461Z,6789.12
2022-09-17T07:55:36.586Z,5043.2
2022-09-17T07:56:36.742Z,6118.4
2022-09-17T07:57:36.899Z,6184.96
2022-09-17T07:58:37.040Z,6973.44
2022-09-17T07:59:37.201Z,8816.64
2022-09-17T08:00:37.938Z,8591.359
2022-09-17T08:01:37.576Z,9569.28
2022-09-17T08:02:37.647Z,7429.12
2022-09-17T08:03:37.699Z,6522.88
2022-09-17T08:04:37.840Z,9594.88
2022-09-17T08:05:38.005Z,12759.04
2022-09-17T08:06:38.153Z,13905.92
2022-09-17T08:07:38.313Z,12759.04
2022-09-17T08:08:38.462Z,9446.399
2022-09-17T08:09:38.610Z,6640.64
2022-09-17T08:10:38.808Z,7372.8
2022-09-17T08:11:55.437Z,10762.24
2022-09-17T08:12:39.117Z,12247.04
2022-09-17T08:13:39.205Z,15022.08
2022-09-17T08:14:39.373Z,17510.4
2022-09-17T08:15:40.009Z,24924.16
2022-09-17T08:16:39.665Z,28938.24
2022-09-17T08:17:39.818Z,30638.08
2022-09-17T08:18:39.870Z,38912
2022-09-17T08:19:40.029Z,39198.72
2022-09-17T08:20:40.191Z,29941.76
2022-09-17T08:21:40.335Z,25763.84
2022-09-17T08:22:40.472Z,26152.96
2022-09-17T08:23:40.627Z,23162.88
2022-09-17T08:24:40.787Z,27832.32
2022-09-17T08:25:40.940Z,17960.96
2022-09-17T08:26:41.125Z,10803.2
2022-09-17T08:27:41.247Z,9538.56
2022-09-17T08:28:41.404Z,9338.88
2022-09-17T08:29:41.563Z,11089.92
2022-09-17T08:30:41.649Z,11612.16
2022-09-17T08:31:41.831Z,23265.28
2022-09-17T08:32:41.945Z,25210.88
2022-09-17T08:33:42.095Z,61276.16
2022-09-17T08:34:42.481Z,53944.32
2022-09-17T08:35:42.397Z,49930.24
2022-09-17T08:36:42.517Z,55746.56
2022-09-17T08:37:42.659Z,65699.84
2022-09-17T08:38:42.806Z,41615.36
2022-09-17T08:39:42.963Z,39608.32
2022-09-17T08:40:43.073Z,39854.08
2022-09-17T08:41:43.220Z,22978.56
2022-09-17T08:42:43.364Z,22200.32
2022-09-17T08:43:43.524Z,24023.04
2022-09-17T08:44:43.689Z,25149.44
2022-09-17T08:45:44.359Z,26132.48
2022-09-17T08:46:44.117Z,24084.48
2022-09-17T08:47:44.135Z,21483.52
2022-09-17T08:48:44.275Z,18677.76
2022-09-17T08:49:44.426Z,25088
2022-09-17T08:50:44.577Z,32399.36
2022-09-17T08:51:44.674Z,34795.52
2022-09-17T08:52:44.839Z,27729.92
2022-09-17T08:53:44.982Z,26972.16
2022-09-17T08:54:45.135Z,25763.84
2022-09-17T08:55:45.296Z,25559.04
2022-09-17T08:56:45.442Z,27054.08
2022-09-17T08:57:45.597Z,26890.24
2022-09-17T08:58:45.744Z,25640.96
2022-09-17T08:59:46.569Z,25128.96
2022-09-17T09:00:46.086Z,25620.48
2022-09-17T09:01:46.300Z,27054.08
2022-09-17T09:02:46.481Z,25518.08
2022-09-17T09:03:46.500Z,22630.4
2022-09-17T09:04:46.657Z,20940.8
2022-09-17T09:05:46.819Z,19886.08
2022-09-17T09:06:46.966Z,18001.92
2022-09-17T09:07:47.112Z,16343.04
2022-09-17T09:08:47.355Z,16250.88
2022-09-17T09:09:47.416Z,16814.08
2022-09-17T09:10:47.582Z,16445.44
2022-09-17T09:11:47.720Z,17070.08
2022-09-17T09:12:47.883Z,20029.44
2022-09-17T09:13:48.025Z,21893.12
2022-09-17T09:14:48.903Z,21749.76
2022-09-17T09:15:48.409Z,21831.68
2022-09-17T09:16:48.560Z,20224
2022-09-17T09:17:48.700Z,28037.12
2022-09-17T09:18:48.835Z,30126.08
2022-09-17T09:19:48.968Z,50790.4
2022-09-17T09:20:49.083Z,40284.16
2022-09-17T09:21:49.234Z,35983.36
2022-09-17T09:22:49.382Z,44564.48
2022-09-17T09:23:49.574Z,29696
2022-09-17T09:24:49.734Z,27095.04
2022-09-17T09:25:49.839Z,25927.68
2022-09-17T09:26:50.001Z,27156.48
2022-09-17T09:27:50.151Z,27914.24
2022-09-17T09:28:50.294Z,29327.36
2022-09-17T09:29:51.088Z,37969.92
2022-09-17T09:30:50.617Z,26787.84
2022-09-17T09:31:50.787Z,19312.64
2022-09-17T09:32:50.810Z,15882.239
2022-09-17T09:33:50.958Z,18903.04
2022-09-17T09:34:51.067Z,18309.12
2022-09-17T09:35:51.213Z,21995.52
2022-09-17T09:36:51.362Z,23654.4
2022-09-17T09:37:51.522Z,15462.399
2022-09-17T09:38:51.620Z,20602.88
2022-09-17T09:39:51.826Z,20275.2
2022-09-17T09:40:51.919Z,20551.68
2022-09-17T09:41:52.081Z,19333.12
2022-09-17T09:42:52.248Z,17356.8
2022-09-17T09:44:03.523Z,26521.6
2022-09-17T09:44:53.080Z,30556.16
2022-09-17T09:45:52.667Z,42721.28
2022-09-17T09:46:52.828Z,24821.76
2022-09-17T09:47:52.929Z,27013.12
2022-09-17T09:48:53.092Z,22958.08
2022-09-17T09:49:53.259Z,37744.64
2022-09-17T09:51:06.038Z,62464
2022-09-17T09:51:53.551Z,44236.8
2022-09-17T09:52:53.703Z,31313.92
2022-09-17T09:53:53.840Z,24207.36
2022-09-17T09:54:53.996Z,19701.76
2022-09-17T09:55:54.143Z,17971.2
2022-09-17T09:56:54.261Z,15063.04
2022-09-17T09:57:54.397Z,14766.08
2022-09-17T09:58:54.552Z,14796.8
2022-09-17T09:59:55.182Z,14530.56
2022-09-17T10:00:54.911Z,14243.84
2022-09-17T10:01:55.131Z,14510.08
2022-09-17T10:02:55.162Z,15308.8
2022-09-17T10:03:55.259Z,16179.199
2022-09-17T10:04:55.422Z,17346.56
2022-09-17T10:05:55.597Z,18401.28
2022-09-17T10:06:55.743Z,19005.44
2022-09-17T10:07:55.876Z,21176.32
2022-09-17T10:08:56.033Z,22794.24
2022-09-17T10:09:56.143Z,24145.92
2022-09-17T10:10:56.278Z,25088
2022-09-17T10:11:56.441Z,25395.2
2022-09-17T10:12:56.577Z,25989.12
2022-09-17T10:13:56.726Z,28487.68
2022-09-17T10:14:57.381Z,41287.68
2022-09-17T10:15:57.166Z,45178.88
2022-09-17T10:16:57.134Z,22691.84
2022-09-17T10:17:57.234Z,18923.52
2022-09-17T10:18:57.345Z,25886.72
2022-09-17T10:19:57.489Z,29081.6
2022-09-17T10:20:57.651Z,27525.12
2022-09-17T10:21:57.793Z,27115.52
2022-09-17T10:22:57.946Z,26726.4
2022-09-17T10:23:58.058Z,19517.44
2022-09-17T10:24:58.212Z,13998.08
2022-09-17T10:25:58.394Z,13250.56
2022-09-17T10:26:58.491Z,9502.72
2022-09-17T10:27:58.654Z,7598.08
2022-09-17T10:28:58.893Z,10516.479
2022-09-17T10:29:59.434Z,10065.92
2022-09-17T10:30:59.159Z,8785.92
2022-09-17T10:31:59.324Z,8857.6
2022-09-17T10:32:59.416Z,10526.72
2022-09-17T10:33:59.507Z,10608.64
2022-09-17T10:34:59.906Z,12052.479
2022-09-17T10:35:59.824Z,11407.359
2022-09-17T10:36:59.982Z,9743.359
2022-09-17T10:38:00.124Z,8488.96
2022-09-17T10:39:00.283Z,7152.64
2022-09-17T10:40:00.582Z,9973.76
2022-09-17T10:41:00.680Z,10547.2
2022-09-17T10:42:01.286Z,10055.68
2022-09-17T10:43:00.929Z,11960.319
2022-09-17T10:44:01.229Z,14960.64
2022-09-17T10:45:01.757Z,15851.52
2022-09-17T10:46:01.386Z,18227.2
2022-09-17T10:47:01.575Z,22589.44
2022-09-17T10:48:01.692Z,24698.88
2022-09-17T10:49:01.842Z,26869.76
2022-09-17T10:50:01.952Z,26152.96
2022-09-17T10:51:02.090Z,26071.04
2022-09-17T10:52:02.246Z,26193.92
2022-09-17T10:53:02.400Z,31313.92
2022-09-17T10:54:02.577Z,27893.76
2022-09-17T10:55:02.724Z,30453.76
2022-09-17T10:56:02.864Z,35164.16
2022-09-17T10:57:03.011Z,42188.8
2022-09-17T10:58:03.121Z,48209.92
2022-09-17T10:59:03.255Z,55582.72
2022-09-17T11:00:03.979Z,30064.64
2022-09-17T11:01:03.565Z,26050.56
2022-09-17T11:02:03.851Z,23859.2
2022-09-17T11:03:03.925Z,23756.8
2022-09-17T11:04:03.979Z,23695.36
2022-09-17T11:05:04.118Z,23633.92
2022-09-17T11:06:04.227Z,22323.2
2022-09-17T11:07:04.374Z,24125.44
2022-09-17T11:08:04.527Z,26624
2022-09-17T11:09:04.678Z,24842.24
2022-09-17T11:10:04.826Z,23470.08
2022-09-17T11:11:04.984Z,23388.16
2022-09-17T11:12:05.232Z,24780.8
2022-09-17T11:13:05.956Z,25907.2
2022-09-17T11:14:05.381Z,26173.44
2022-09-17T11:15:05.714Z,27914.24
2022-09-17T11:16:06.580Z,23531.52
2022-09-17T11:17:05.883Z,25026.56
2022-09-17T11:18:05.980Z,24924.16
2022-09-17T11:19:06.143Z,25579.52
2022-09-17T11:20:06.304Z,25518.08
2022-09-17T11:21:06.451Z,23347.2
2022-09-17T11:22:06.592Z,19118.08
2022-09-17T11:23:06.749Z,17868.8
2022-09-17T11:24:06.910Z,21422.08
2022-09-17T11:25:07.054Z,24719.36
2022-09-17T11:26:07.210Z,24944.64
2022-09-17T11:27:07.365Z,21852.16
2022-09-17T11:28:07.467Z,17899.52
2022-09-17T11:29:07.647Z,15339.52
2022-09-17T11:30:07.809Z,13936.64
2022-09-17T11:31:08.911Z,12584.96
2022-09-17T11:32:08.097Z,13178.88
2022-09-17T11:33:08.840Z,15575.04
2022-09-17T11:34:08.374Z,17428.48
2022-09-17T11:35:08.522Z,17766.4
2022-09-17T11:36:08.692Z,16773.12
2022-09-17T11:37:08.827Z,16302.08
2022-09-17T11:38:08.931Z,16291.84
2022-09-17T11:39:09.080Z,15339.52
2022-09-17T11:40:09.298Z,15421.439
2022-09-17T11:41:09.387Z,16496.64
2022-09-17T11:42:09.543Z,18063.36
2022-09-17T11:43:09.648Z,20111.36
2022-09-17T11:44:09.798Z,23060.48
2022-09-17T11:45:10.471Z,23244.8
2022-09-17T11:46:10.152Z,24104.96
2022-09-17T11:47:10.270Z,23654.4
2022-09-17T11:48:10.399Z,21667.84
2022-09-17T11:49:10.560Z,22200.32
2022-09-17T11:50:10.697Z,27484.16
2022-09-17T11:51:10.847Z,27361.28
2022-09-17T11:52:10.965Z,26644.48
2022-09-17T11:53:11.101Z,31211.52
2022-09-17T11:54:11.258Z,25784.32
2022-09-17T11:55:11.408Z,21544.96
2022-09-17T11:56:11.526Z,19865.6
2022-09-17T11:57:11.666Z,21524.48
2022-09-17T11:58:11.811Z,22077.44
2022-09-17T11:59:11.967Z,23449.6
2022-09-17T12:00:12.788Z,22568.96
2022-09-17T12:01:12.294Z,19466.24
2022-09-17T12:02:12.453Z,18698.24
2022-09-17T12:03:12.578Z,20807.68
2022-09-17T12:04:12.600Z,21114.88
2022-09-17T12:05:12.736Z,25006.08
2022-09-17T12:06:12.875Z,25927.68
2022-09-17T12:07:13.015Z,27770.88
2022-09-17T12:08:14.766Z,26419.2
2022-09-17T12:09:13.347Z,29286.4
2022-09-17T12:10:13.488Z,26255.36
2022-09-17T12:11:13.587Z,26460.16
2022-09-17T12:12:26.539Z,30126.08
2022-09-17T12:13:13.840Z,38092.8
2022-09-17T12:14:13.991Z,39731.2
2022-09-17T12:15:14.673Z,34263.04
2022-09-17T12:16:14.355Z,29491.2
2022-09-17T12:17:14.459Z,27586.56
2022-09-17T12:18:31.476Z,26030.08
2022-09-17T12:19:14.780Z,24883.2
2022-09-17T12:20:14.925Z,23244.8
2022-09-17T12:21:15.012Z,23080.96
2022-09-17T12:22:15.172Z,22978.56
2022-09-17T12:23:15.308Z,19947.52
2022-09-17T12:24:15.458Z,17141.76
2022-09-17T12:25:15.585Z,14407.68
2022-09-17T12:26:15.670Z,12318.72
2022-09-17T12:27:15.811Z,11345.92
2022-09-17T12:28:15.963Z,11745.279
2022-09-17T12:29:16.080Z,10332.16
2022-09-17T12:30:21.946Z,7142.4
2022-09-17T12:31:16.401Z,4951.04